Time;durP1;ratioP1;P1;durP2;ratioP2;P2;SDS_P1;SDS_P2;PMS_P1;PMS_P2;Temp;Humidity;BMP_temperature;BMP_pressure;BME280_temperature;BME280_humidity;BME280_pressure;Samples;Min_cycle;Max_cycle;Signal;HPM_P1;HPM_P2
2021/03/10 00:02:12;;;;;;;62.97;28.13;;;;;;;;;;5075151;28;20375;-82
2021/03/10 00:04:37;;;;;;;66.07;28.87;;;;;;;;;;5073730;28;20017;-82
2021/03/10 00:07:02;;;;;;;66.07;29.93;;;;;;;;;;5073798;28;20086;-82
2021/03/10 00:09:27;;;;;;;56.60;27.50;;;;;;;;;;5073983;28;20028;-82
2021/03/10 00:11:52;;;;;;;58.73;28.27;;;;;;;;;;5073572;28;20706;-82
2021/03/10 00:14:18;;;;;;;60.43;28.43;;;;;;;;;;5075129;28;20020;-82
2021/03/10 00:16:43;;;;;;;60.87;29.53;;;;;;;;;;5074807;28;20091;-82
2021/03/10 00:19:08;;;;;;;59.63;28.57;;;;;;;;;;5073568;28;20023;-82
2021/03/10 00:21:33;;;;;;;58.97;28.03;;;;;;;;;;5073549;28;20024;-82
2021/03/10 00:23:58;;;;;;;57.03;28.03;;;;;;;;;;5074688;28;20367;-82
2021/03/10 00:26:24;;;;;;;61.00;28.73;;;;;;;;;;5074986;28;20028;-82
2021/03/10 00:28:49;;;;;;;64.77;29.53;;;;;;;;;;5073166;28;20111;-82
2021/03/10 00:31:14;;;;;;;57.07;26.30;;;;;;;;;;5068261;28;20108;-82
2021/03/10 00:33:39;;;;;;;58.83;25.83;;;;;;;;;;5074666;28;20085;-81
2021/03/10 00:36:05;;;;;;;57.83;26.37;;;;;;;;;;5073436;28;20424;-82
2021/03/10 00:38:30;;;;;;;70.67;29.70;;;;;;;;;;5073140;28;20067;-81
2021/03/10 00:40:55;;;;;;;62.83;30.13;;;;;;;;;;5074198;28;20384;-82
2021/03/10 00:43:20;;;;;;;70.37;31.50;;;;;;;;;;5073406;28;20059;-81
2021/03/10 00:45:46;;;;;;;73.40;35.20;;;;;;;;;;5074299;28;20029;-81
2021/03/10 00:48:11;;;;;;;68.57;31.30;;;;;;;;;;5073020;28;20496;-82
2021/03/10 00:50:36;;;;;;;61.27;29.23;;;;;;;;;;5073283;28;20452;-82
2021/03/10 00:53:01;;;;;;;62.90;29.33;;;;;;;;;;5073899;28;20028;-82
2021/03/10 00:55:26;;;;;;;60.40;29.80;;;;;;;;;;5072997;28;20016;-82
2021/03/10 00:57:52;;;;;;;64.60;30.67;;;;;;;;;;5073038;28;20471;-82
2021/03/10 01:00:19;;;;;;;65.57;29.83;;;;;;;;;;5074215;28;20021;-82
2021/03/10 01:02:44;;;;;;;70.00;31.37;;;;;;;;;;5074067;28;20021;-81
2021/03/10 01:05:09;;;;;;;64.10;30.37;;;;;;;;;;5073464;28;20030;-81
2021/03/10 01:07:35;;;;;;;65.00;28.93;;;;;;;;;;5072702;28;20020;-82
2021/03/10 01:10:00;;;;;;;67.77;31.47;;;;;;;;;;5072779;28;20020;-82
2021/03/10 01:12:26;;;;;;;65.63;30.67;;;;;;;;;;5073671;28;20013;-82
2021/03/10 01:14:51;;;;;;;63.87;28.50;;;;;;;;;;5074041;28;20353;-81
2021/03/10 01:17:16;;;;;;;68.60;30.27;;;;;;;;;;5073315;28;20017;-81
2021/03/10 01:19:41;;;;;;;68.33;31.90;;;;;;;;;;5072575;28;20027;-82
2021/03/10 01:22:06;;;;;;;56.77;27.80;;;;;;;;;;5072291;28;20036;-81
2021/03/10 01:24:32;;;;;;;65.13;28.97;;;;;;;;;;5072446;28;20107;-81
2021/03/10 01:26:57;;;;;;;63.03;29.77;;;;;;;;;;5072346;28;20027;-82
2021/03/10 01:29:22;;;;;;;58.97;27.13;;;;;;;;;;5072305;28;20381;-81
2021/03/10 01:31:47;;;;;;;65.40;29.77;;;;;;;;;;5072185;28;20009;-81
2021/03/10 01:34:13;;;;;;;66.80;28.47;;;;;;;;;;5072071;28;20066;-82
2021/03/10 01:36:38;;;;;;;57.60;27.80;;;;;;;;;;5073481;28;20024;-82
2021/03/10 01:39:03;;;;;;;63.40;29.43;;;;;;;;;;5072222;28;20016;-81
2021/03/10 01:41:28;;;;;;;69.90;32.23;;;;;;;;;;5072023;28;20062;-82
2021/03/10 01:43:54;;;;;;;73.40;32.43;;;;;;;;;;5072007;28;20020;-82
2021/03/10 01:46:19;;;;;;;72.30;33.33;;;;;;;;;;5071641;28;20467;-82
2021/03/10 01:48:44;;;;;;;74.60;33.30;;;;;;;;;;5073454;28;20024;-82
2021/03/10 01:51:10;;;;;;;70.77;31.83;;;;;;;;;;5071916;28;20120;-82
2021/03/10 01:53:35;;;;;;;74.90;33.10;;;;;;;;;;5071871;28;20020;-82
2021/03/10 01:56:01;;;;;;;68.03;31.87;;;;;;;;;;5072965;28;20016;-81
2021/03/10 01:58:26;;;;;;;71.57;33.33;;;;;;;;;;5071491;28;20032;-81
2021/03/10 02:00:51;;;;;;;79.20;33.33;;;;;;;;;;5071569;28;20077;-81
2021/03/10 02:03:17;;;;;;;69.20;32.90;;;;;;;;;;5073119;28;20025;-82
2021/03/10 02:05:42;;;;;;;69.93;30.27;;;;;;;;;;5072998;28;20020;-82
2021/03/10 02:08:07;;;;;;;70.27;31.83;;;;;;;;;;5071587;28;20029;-81
2021/03/10 02:10:56;;;;;;;69.15;32.45;;;;;;;;;;5072445;28;20480;-82
2021/03/10 02:13:44;;;;;;;61.63;29.77;;;;;;;;;;5071020;28;20055;-82
2021/03/10 02:16:18;;;;;;;60.30;27.87;;;;;;;;;;5086859;28;20174;-82
2021/03/10 02:18:46;;;;;;;60.83;28.07;;;;;;;;;;5066551;28;20016;-82
2021/03/10 02:21:18;;;;;;;63.60;29.83;;;;;;;;;;5071247;28;20109;-82
2021/03/10 02:23:44;;;;;;;58.77;28.10;;;;;;;;;;5072606;28;20021;-82
2021/03/10 02:26:18;;;;;;;60.53;27.38;;;;;;;;;;5070662;28;20028;-82
2021/03/10 02:28:44;;;;;;;61.60;28.23;;;;;;;;;;5064159;28;20102;-82
2021/03/10 02:31:11;;;;;;;65.17;29.23;;;;;;;;;;5070890;28;20091;-82
2021/03/10 02:33:37;;;;;;;61.43;30.30;;;;;;;;;;5070869;28;20038;-82
2021/03/10 02:36:04;;;;;;;58.40;27.50;;;;;;;;;;5066904;28;20130;-82
2021/03/10 02:38:30;;;;;;;60.70;26.60;;;;;;;;;;5070379;28;20077;-81
2021/03/10 02:40:55;;;;;;;52.23;24.83;;;;;;;;;;5067174;28;20024;-82
2021/03/10 02:43:21;;;;;;;46.47;22.13;;;;;;;;;;5064162;28;20067;-82
2021/03/10 02:45:47;;;;;;;61.50;29.80;;;;;;;;;;5070961;28;20052;-81
2021/03/10 02:48:12;;;;;;;71.90;33.17;;;;;;;;;;5072116;28;20024;-82
2021/03/10 02:50:38;;;;;;;66.17;32.03;;;;;;;;;;5070643;28;20066;-82
2021/03/10 02:53:04;;;;;;;67.23;31.93;;;;;;;;;;5070422;28;20028;-82
2021/03/10 02:55:30;;;;;;;70.30;32.63;;;;;;;;;;5072120;28;20399;-81
2021/03/10 02:57:55;;;;;;;62.97;29.57;;;;;;;;;;5071796;28;20032;-81
2021/03/10 03:00:23;;;;;;;51.40;26.47;;;;;;;;;;5070639;28;20017;-81
2021/03/10 03:02:48;;;;;;;43.97;23.60;;;;;;;;;;5070652;28;20342;-82
2021/03/10 03:05:13;;;;;;;61.70;28.80;;;;;;;;;;5071728;28;20027;-82
2021/03/10 03:07:39;;;;;;;69.37;31.83;;;;;;;;;;5070434;28;20384;-82
2021/03/10 03:10:06;;;;;;;72.43;33.07;;;;;;;;;;5071674;28;20115;-82
2021/03/10 03:12:31;;;;;;;73.33;33.10;;;;;;;;;;5071385;28;20040;-81
2021/03/10 03:14:57;;;;;;;77.00;33.77;;;;;;;;;;5070611;28;20403;-82
2021/03/10 03:17:23;;;;;;;68.00;33.07;;;;;;;;;;5070506;28;20379;-82
2021/03/10 03:19:48;;;;;;;64.03;31.30;;;;;;;;;;5070509;28;20040;-82
2021/03/10 03:22:13;;;;;;;71.97;32.60;;;;;;;;;;5070435;28;20064;-82
2021/03/10 03:24:38;;;;;;;70.77;34.13;;;;;;;;;;5070385;28;20384;-82
2021/03/10 03:27:04;;;;;;;75.67;34.30;;;;;;;;;;5071881;28;21180;-82
2021/03/10 03:29:30;;;;;;;75.23;35.63;;;;;;;;;;5073346;28;20024;-82
2021/03/10 03:31:56;;;;;;;72.67;34.83;;;;;;;;;;5074395;28;20024;-81
2021/03/10 03:34:22;;;;;;;68.27;33.87;;;;;;;;;;5074715;28;20115;-81
2021/03/10 03:36:48;;;;;;;65.60;32.90;;;;;;;;;;5075627;28;20544;-81
2021/03/10 03:39:13;;;;;;;79.80;35.20;;;;;;;;;;5074389;28;20029;-81
2021/03/10 03:41:38;;;;;;;68.77;33.17;;;;;;;;;;5074366;28;20028;-82
2021/03/10 03:44:04;;;;;;;79.30;33.90;;;;;;;;;;5074307;28;20012;-82
2021/03/10 03:46:32;;;;;;;69.97;34.30;;;;;;;;;;5075850;28;20087;-82
2021/03/10 03:48:58;;;;;;;70.50;34.50;;;;;;;;;;5074155;28;20111;-82
2021/03/10 03:51:24;;;;;;;69.87;34.33;;;;;;;;;;5068752;28;20028;-81
2021/03/10 03:53:57;;;;;;;68.90;33.70;;;;;;;;;;5074012;28;20091;-81
2021/03/10 03:56:22;;;;;;;;;;;;;;;;;;5073481;28;20049;-81
2021/03/10 03:58:47;;;;;;;73.18;36.17;;;;;;;;;;5074048;28;19909;-81
2021/03/10 04:01:12;;;;;;;74.83;36.47;;;;;;;;;;5074018;28;20052;-82
2021/03/10 04:03:37;;;;;;;73.27;35.40;;;;;;;;;;5075495;28;20023;-82
2021/03/10 04:06:03;;;;;;;76.30;34.20;;;;;;;;;;5075041;28;20040;-81
2021/03/10 04:08:28;;;;;;;71.07;35.23;;;;;;;;;;5073979;28;20070;-82
2021/03/10 04:10:53;;;;;;;70.70;35.40;;;;;;;;;;5073997;28;20094;-82
2021/03/10 04:13:18;;;;;;;75.60;34.63;;;;;;;;;;5073745;28;20020;-82
2021/03/10 04:15:43;;;;;;;75.23;34.30;;;;;;;;;;5073906;28;20044;-82
2021/03/10 04:18:09;;;;;;;71.60;35.77;;;;;;;;;;5073603;28;20017;-82
2021/03/10 04:20:34;;;;;;;75.13;36.63;;;;;;;;;;5075077;28;20020;-81
2021/03/10 04:22:59;;;;;;;79.00;38.13;;;;;;;;;;5073558;28;20020;-81
2021/03/10 04:25:24;;;;;;;81.63;36.13;;;;;;;;;;5073781;28;20483;-81
2021/03/10 04:27:50;;;;;;;67.93;33.50;;;;;;;;;;5075121;28;20119;-81
2021/03/10 04:30:15;;;;;;;74.43;36.20;;;;;;;;;;5073293;28;20483;-82
2021/03/10 04:32:40;;;;;;;76.03;35.10;;;;;;;;;;5073624;28;20111;-82
2021/03/10 04:35:06;;;;;;;71.37;33.70;;;;;;;;;;5073154;28;20039;-81
2021/03/10 04:37:31;;;;;;;71.13;34.90;;;;;;;;;;5074706;28;20020;-81
2021/03/10 04:39:56;;;;;;;75.70;33.23;;;;;;;;;;5072404;28;20048;-81
2021/03/10 04:42:22;;;;;;;69.10;32.70;;;;;;;;;;5073358;28;20020;-81
2021/03/10 04:44:47;;;;;;;72.83;33.33;;;;;;;;;;5073163;28;20012;-81
2021/03/10 04:47:12;;;;;;;66.53;32.37;;;;;;;;;;5074480;28;20074;-81
2021/03/10 04:49:37;;;;;;;65.07;32.53;;;;;;;;;;5073099;28;20112;-81
2021/03/10 04:52:03;;;;;;;68.77;33.13;;;;;;;;;;5074057;28;20032;-81
2021/03/10 04:54:28;;;;;;;72.67;32.47;;;;;;;;;;5073047;28;20506;-81
2021/03/10 04:56:53;;;;;;;68.07;31.83;;;;;;;;;;5072841;28;20734;-81
2021/03/10 04:59:18;;;;;;;62.13;31.60;;;;;;;;;;5072608;28;20032;-82
2021/03/10 05:01:43;;;;;;;68.20;30.63;;;;;;;;;;5073033;28;20527;-82
2021/03/10 05:04:08;;;;;;;66.50;30.53;;;;;;;;;;5072891;28;20057;-82
2021/03/10 05:06:34;;;;;;;62.37;30.23;;;;;;;;;;5074082;28;20044;-81
2021/03/10 05:08:59;;;;;;;69.70;32.00;;;;;;;;;;5072953;28;20384;-81
2021/03/10 05:11:24;;;;;;;66.23;30.30;;;;;;;;;;5072530;28;20380;-81
2021/03/10 05:13:49;;;;;;;65.40;29.37;;;;;;;;;;5074172;28;20024;-81
2021/03/10 05:16:15;;;;;;;56.60;28.27;;;;;;;;;;5072331;28;20036;-82
2021/03/10 05:18:40;;;;;;;60.67;28.27;;;;;;;;;;5072724;28;20070;-82
2021/03/10 05:21:06;;;;;;;57.20;27.63;;;;;;;;;;5072592;28;20062;-81
2021/03/10 05:23:31;;;;;;;62.23;28.87;;;;;;;;;;5072428;28;20027;-81
2021/03/10 05:25:56;;;;;;;56.00;27.37;;;;;;;;;;5072642;28;20052;-81
2021/03/10 05:28:21;;;;;;;59.20;27.47;;;;;;;;;;5072354;28;20026;-81
2021/03/10 05:30:47;;;;;;;54.33;25.70;;;;;;;;;;5072645;28;20029;-81
2021/03/10 05:33:12;;;;;;;55.30;26.13;;;;;;;;;;5072016;28;20368;-82
2021/03/10 05:35:37;;;;;;;54.37;24.60;;;;;;;;;;5072252;28;20017;-81
2021/03/10 05:38:02;;;;;;;53.70;25.00;;;;;;;;;;5072428;28;20021;-81
2021/03/10 05:40:27;;;;;;;54.07;25.20;;;;;;;;;;5071780;28;20044;-82
2021/03/10 05:42:53;;;;;;;53.60;24.80;;;;;;;;;;5073621;28;20027;-82
2021/03/10 05:45:18;;;;;;;52.00;24.97;;;;;;;;;;5071941;28;20029;-82
2021/03/10 05:47:43;;;;;;;51.50;23.80;;;;;;;;;;5072069;28;20028;-82
2021/03/10 05:50:09;;;;;;;54.17;24.03;;;;;;;;;;5073412;28;20095;-82
2021/03/10 05:52:35;;;;;;;52.03;24.97;;;;;;;;;;5070503;28;20032;-82
2021/03/10 05:55:01;;;;;;;56.53;25.20;;;;;;;;;;5071981;28;20027;-82
2021/03/10 05:57:26;;;;;;;48.17;23.40;;;;;;;;;;5073287;28;20368;-82
2021/03/10 05:59:51;;;;;;;56.63;24.70;;;;;;;;;;5071781;28;20012;-81
2021/03/10 06:02:17;;;;;;;53.07;23.90;;;;;;;;;;5071816;28;20016;-81
2021/03/10 06:04:43;;;;;;;60.10;28.67;;;;;;;;;;5071461;28;20043;-81
2021/03/10 06:07:21;;;;;;;63.27;27.67;;;;;;;;;;5073212;28;20100;-81
2021/03/10 06:10:06;;;;;;;60.67;25.70;;;;;;;;;;5071602;28;20028;-82
2021/03/10 06:12:38;;;;;;;56.57;25.97;;;;;;;;;;5054415;28;20044;-81
2021/03/10 06:15:04;;;;;;;60.40;27.00;;;;;;;;;;5071341;28;20028;-81
2021/03/10 06:17:39;;;;;;;59.70;27.03;;;;;;;;;;5071187;28;20073;-81
2021/03/10 06:20:04;;;;;;;63.33;28.17;;;;;;;;;;5071348;28;20067;-81
2021/03/10 06:22:33;;;;;;;58.43;27.67;;;;;;;;;;5071281;28;20052;-81
2021/03/10 06:25:02;;;;;;;61.97;27.57;;;;;;;;;;5071211;28;20024;-81
2021/03/10 06:27:27;;;;;;;53.50;25.03;;;;;;;;;;5072475;28;20039;-82
2021/03/10 06:29:59;;;;;;;59.00;27.03;;;;;;;;;;5071005;28;20016;-82
2021/03/10 06:32:25;;;;;;;59.00;25.52;;;;;;;;;;5071345;28;20024;-81
2021/03/10 06:34:52;;;;;;;62.53;26.83;;;;;;;;;;5071060;28;20112;-82
2021/03/10 06:37:24;;;;;;;52.97;27.10;;;;;;;;;;5072345;28;20086;-81
2021/03/10 06:39:49;;;;;;;;;;;;;;;;;;5072666;28;20020;-81
2021/03/10 06:42:15;;;;;;;60.63;24.93;;;;;;;;;;5070769;28;19908;-81
2021/03/10 06:44:50;;;;;;;62.17;25.23;;;;;;;;;;5070798;28;20261;-81
2021/03/10 06:47:15;;;;;;;56.10;26.30;;;;;;;;;;5072465;28;20043;-81
2021/03/10 06:49:48;;;;;;;58.33;25.13;;;;;;;;;;5070652;28;20097;-81
2021/03/10 06:52:13;;;;;;;55.60;26.63;;;;;;;;;;5072356;28;20025;-81
2021/03/10 06:54:38;;;;;;;57.73;25.37;;;;;;;;;;5071880;28;20020;-81
2021/03/10 06:57:08;;;;;;;57.00;26.07;;;;;;;;;;5070744;28;20498;-81
2021/03/10 06:59:44;;;;;;;58.20;26.40;;;;;;;;;;5072110;28;20044;-81
2021/03/10 07:02:15;;;;;;;58.70;25.57;;;;;;;;;;5064063;28;20145;-82
2021/03/10 07:04:44;;;;;;;52.70;24.47;;;;;;;;;;5070199;28;20392;-81
2021/03/10 07:07:10;;;;;;;58.33;25.13;;;;;;;;;;5070725;28;20027;-81
2021/03/10 07:09:38;;;;;;;60.10;26.17;;;;;;;;;;5071997;28;20391;-82
2021/03/10 07:12:05;;;;;;;59.93;27.53;;;;;;;;;;5070530;28;20036;-81
2021/03/10 07:14:33;;;;;;;61.43;26.20;;;;;;;;;;5071017;28;20080;-81
2021/03/10 07:16:58;;;;;;;60.30;26.83;;;;;;;;;;5070590;28;20029;-81
2021/03/10 07:19:24;;;;;;;66.07;28.03;;;;;;;;;;5070787;28;20032;-81
2021/03/10 07:21:51;;;;;;;58.77;26.97;;;;;;;;;;5070363;28;20056;-81
2021/03/10 07:24:21;;;;;;;61.20;27.13;;;;;;;;;;5070623;28;20051;-81
2021/03/10 07:26:47;;;;;;;63.63;26.07;;;;;;;;;;5070066;28;20024;-82
2021/03/10 07:29:13;;;;;;;61.90;26.13;;;;;;;;;;5070672;28;20020;-81
2021/03/10 07:31:38;;;;;;;59.43;25.50;;;;;;;;;;5070594;28;20056;-81
2021/03/10 07:34:04;;;;;;;68.20;28.13;;;;;;;;;;5070371;28;20056;-81
2021/03/10 07:36:45;;;;;;;60.10;27.83;;;;;;;;;;5070404;28;20078;-81
2021/03/10 07:39:21;;;;;;;61.30;25.73;;;;;;;;;;5063748;28;20527;-81
2021/03/10 07:41:49;;;;;;;56.23;24.57;;;;;;;;;;5069093;28;20107;-81
2021/03/10 07:44:15;;;;;;;61.23;25.13;;;;;;;;;;5069386;28;20360;-81
2021/03/10 07:46:41;;;;;;;56.47;23.83;;;;;;;;;;5070357;28;20017;-81
2021/03/10 07:49:23;;;;;;;61.60;24.07;;;;;;;;;;5069214;28;20024;-81
2021/03/10 07:51:48;;;;;;;57.85;24.05;;;;;;;;;;5067685;28;20418;-81
2021/03/10 07:54:25;;;;;;;54.90;25.03;;;;;;;;;;5070172;28;20028;-81
2021/03/10 07:56:50;;;;;;;53.17;24.30;;;;;;;;;;5070213;28;20046;-80
2021/03/10 07:59:17;;;;;;;58.50;24.80;;;;;;;;;;5070039;28;20024;-80
2021/03/10 08:01:42;;;;;;;56.87;23.40;;;;;;;;;;5069640;28;20021;-81
2021/03/10 08:04:15;;;;;;;59.93;24.93;;;;;;;;;;5069542;28;20158;-81
2021/03/10 08:06:41;;;;;;;52.00;24.43;;;;;;;;;;5069459;28;20013;-80
2021/03/10 08:09:06;;;;;;;59.70;23.63;;;;;;;;;;5069952;28;20111;-80
2021/03/10 08:11:35;;;;;;;53.40;23.83;;;;;;;;;;5069557;28;20489;-80
2021/03/10 08:14:00;;;;;;;58.03;22.77;;;;;;;;;;5069440;28;20024;-80
2021/03/10 08:16:25;;;;;;;54.97;24.13;;;;;;;;;;5073297;28;20020;-79
2021/03/10 08:18:51;;;;;;;58.43;22.93;;;;;;;;;;5074367;28;20040;-80
2021/03/10 08:21:18;;;;;;;49.77;23.13;;;;;;;;;;5073199;28;20111;-81
2021/03/10 08:23:43;;;;;;;56.80;23.73;;;;;;;;;;5066780;28;20129;-81
2021/03/10 08:26:08;;;;;;;50.67;21.70;;;;;;;;;;5074755;28;20052;-81
2021/03/10 08:28:38;;;;;;;53.37;23.40;;;;;;;;;;5073361;28;20082;-80
2021/03/10 08:31:04;;;;;;;56.37;22.17;;;;;;;;;;5074123;28;20033;-80
2021/03/10 08:33:30;;;;;;;48.13;22.67;;;;;;;;;;5072879;28;20036;-81
2021/03/10 08:35:55;;;;;;;52.60;22.47;;;;;;;;;;5072975;28;20016;-81
2021/03/10 08:38:21;;;;;;;60.43;24.30;;;;;;;;;;5072308;28;20116;-81
2021/03/10 08:40:46;;;;;;;47.97;20.77;;;;;;;;;;5071348;28;20024;-81
2021/03/10 08:43:18;;;;;;;51.63;21.80;;;;;;;;;;5073066;28;20655;-81
2021/03/10 08:45:44;;;;;;;;;;;;;;;;;;5072189;28;20119;-80
2021/03/10 08:48:10;;;;;;;51.03;20.43;;;;;;;;;;5074262;28;20027;-80
2021/03/10 08:50:36;;;;;;;45.63;20.80;;;;;;;;;;5071438;28;20272;-81
2021/03/10 08:53:03;;;;;;;37.13;16.83;;;;;;;;;;5068432;28;20028;-81
2021/03/10 08:55:28;;;;;;;37.20;18.33;;;;;;;;;;5068058;28;20514;-81
2021/03/10 08:57:54;;;;;;;44.57;21.70;;;;;;;;;;5072357;28;20029;-81
2021/03/10 09:00:25;;;;;;;43.37;19.20;;;;;;;;;;5073662;28;20052;-81
2021/03/10 09:02:50;;;;;;;43.73;20.97;;;;;;;;;;5072801;28;20387;-81
2021/03/10 09:05:16;;;;;;;45.47;20.70;;;;;;;;;;5072489;28;20024;-81
2021/03/10 09:07:42;;;;;;;44.00;20.63;;;;;;;;;;5066758;28;20040;-81
2021/03/10 09:10:08;;;;;;;35.83;18.17;;;;;;;;;;5073198;28;20024;-81
2021/03/10 09:12:34;;;;;;;46.03;22.90;;;;;;;;;;5072147;28;20039;-81
2021/03/10 09:14:59;;;;;;;36.97;18.87;;;;;;;;;;5073176;28;20024;-81
2021/03/10 09:17:37;;;;;;;40.33;18.43;;;;;;;;;;5070641;28;20483;-81
2021/03/10 09:20:27;;;;;;;38.50;18.97;;;;;;;;;;5071198;28;20024;-81
2021/03/10 09:22:52;;;;;;;35.67;17.20;;;;;;;;;;5060011;28;20044;-81
2021/03/10 09:25:20;;;;;;;38.83;17.50;;;;;;;;;;5072363;28;20468;-81
2021/03/10 09:27:49;;;;;;;33.20;17.77;;;;;;;;;;5071882;28;20036;-81
2021/03/10 09:30:28;;;;;;;36.63;15.70;;;;;;;;;;5072495;28;20449;-80
2021/03/10 09:32:53;;;;;;;31.50;16.73;;;;;;;;;;5071940;28;20115;-80
2021/03/10 09:35:20;;;;;;;30.20;15.43;;;;;;;;;;5071983;28;20107;-81
2021/03/10 09:37:50;;;;;;;31.30;15.93;;;;;;;;;;5073279;28;20029;-80
2021/03/10 09:40:16;;;;;;;32.80;14.30;;;;;;;;;;5073294;28;20036;-80
2021/03/10 09:42:44;;;;;;;27.53;14.43;;;;;;;;;;5073324;28;20480;-81
2021/03/10 09:45:20;;;;;;;29.77;15.47;;;;;;;;;;5071858;28;20033;-81
2021/03/10 09:47:48;;;;;;;23.53;13.53;;;;;;;;;;5072952;28;20028;-81
2021/03/10 09:50:22;;;;;;;32.87;14.20;;;;;;;;;;5073215;28;20078;-80
2021/03/10 09:52:47;;;;;;;27.50;14.00;;;;;;;;;;5071640;28;20021;-81
2021/03/10 09:55:17;;;;;;;24.20;12.50;;;;;;;;;;5071819;28;20533;-81
2021/03/10 09:57:42;;;;;;;28.60;14.07;;;;;;;;;;5071446;28;20031;-81
2021/03/10 10:00:17;;;;;;;26.37;13.80;;;;;;;;;;5072953;28;20017;-80
2021/03/10 10:02:44;;;;;;;28.27;12.73;;;;;;;;;;5071475;28;20525;-81
2021/03/10 10:05:09;;;;;;;23.30;12.60;;;;;;;;;;5072962;28;20036;-80
2021/03/10 10:07:34;;;;;;;24.67;11.90;;;;;;;;;;5072738;28;20537;-80
2021/03/10 10:10:00;;;;;;;25.70;13.23;;;;;;;;;;5071300;28;20020;-80
2021/03/10 10:12:25;;;;;;;26.63;14.00;;;;;;;;;;5071438;28;20059;-81
2021/03/10 10:14:51;;;;;;;22.50;12.43;;;;;;;;;;5071199;28;20051;-80
2021/03/10 10:17:16;;;;;;;25.57;12.87;;;;;;;;;;5071419;28;20157;-80
2021/03/10 10:19:42;;;;;;;20.50;11.77;;;;;;;;;;5072441;28;20016;-81
2021/03/10 10:22:07;;;;;;;26.20;11.43;;;;;;;;;;5071342;28;20035;-81
2021/03/10 10:24:33;;;;;;;23.63;11.57;;;;;;;;;;5071122;28;20024;-80
2021/03/10 10:26:58;;;;;;;31.20;12.00;;;;;;;;;;5070953;28;20487;-80
2021/03/10 10:29:23;;;;;;;24.80;11.90;;;;;;;;;;5070704;28;20460;-81
2021/03/10 10:31:48;;;;;;;22.27;11.67;;;;;;;;;;5070921;28;20025;-81
2021/03/10 10:34:14;;;;;;;19.13;11.57;;;;;;;;;;5071040;28;20078;-80
2021/03/10 10:36:39;;;;;;;21.37;12.80;;;;;;;;;;5070945;28;20028;-81
2021/03/10 10:39:05;;;;;;;22.27;11.20;;;;;;;;;;5070156;28;20029;-80
2021/03/10 10:41:30;;;;;;;24.77;11.37;;;;;;;;;;5072282;28;20096;-80
2021/03/10 10:43:55;;;;;;;24.80;11.57;;;;;;;;;;5071708;28;20122;-81
2021/03/10 10:46:20;;;;;;;21.77;11.50;;;;;;;;;;5072284;28;20020;-81
2021/03/10 10:48:45;;;;;;;18.27;11.20;;;;;;;;;;5070764;28;20032;-81
2021/03/10 10:51:11;;;;;;;19.47;11.37;;;;;;;;;;5070657;28;20400;-81
2021/03/10 10:53:36;;;;;;;20.20;11.97;;;;;;;;;;5070767;28;20028;-81
2021/03/10 10:56:01;;;;;;;21.57;10.77;;;;;;;;;;5071705;28;20025;-80
2021/03/10 10:58:26;;;;;;;21.13;11.30;;;;;;;;;;5072012;28;20009;-81
2021/03/10 11:00:51;;;;;;;23.27;12.03;;;;;;;;;;5070224;28;20023;-81
2021/03/10 11:03:17;;;;;;;20.97;12.77;;;;;;;;;;5070491;28;20020;-80
2021/03/10 11:05:42;;;;;;;23.83;13.73;;;;;;;;;;5070851;28;20024;-80
2021/03/10 11:08:07;;;;;;;24.50;12.20;;;;;;;;;;5070325;28;20032;-80
2021/03/10 11:10:32;;;;;;;24.47;13.27;;;;;;;;;;5070792;28;20024;-80
2021/03/10 11:12:57;;;;;;;22.77;11.17;;;;;;;;;;5069839;28;20088;-80
2021/03/10 11:15:23;;;;;;;25.23;12.90;;;;;;;;;;5070523;28;20013;-80
2021/03/10 11:17:48;;;;;;;25.10;12.60;;;;;;;;;;5070327;28;20124;-81
2021/03/10 11:20:14;;;;;;;28.73;14.57;;;;;;;;;;5069973;28;20027;-80
2021/03/10 11:22:39;;;;;;;27.10;13.97;;;;;;;;;;5068276;28;20337;-81
2021/03/10 11:25:05;;;;;;;21.30;13.70;;;;;;;;;;5068238;28;20025;-80
2021/03/10 11:27:31;;;;;;;25.50;10.30;;;;;;;;;;5069311;28;20158;-80
2021/03/10 11:29:56;;;;;;;24.20;14.27;;;;;;;;;;5069070;28;20025;-80
2021/03/10 11:32:21;;;;;;;31.50;16.20;;;;;;;;;;5069894;28;20035;-80
2021/03/10 11:34:46;;;;;;;27.10;14.30;;;;;;;;;;5070456;28;20013;-80
2021/03/10 11:37:11;;;;;;;26.03;13.27;;;;;;;;;;5068325;28;20067;-81
2021/03/10 11:39:37;;;;;;;28.90;14.65;;;;;;;;;;5070688;28;20028;-81
2021/03/10 11:42:02;;;;;;;29.08;15.48;;;;;;;;;;5069890;28;20103;-81
2021/03/10 11:44:27;;;;;;;30.30;18.00;;;;;;;;;;5070942;28;20021;-81
2021/03/10 11:46:55;;;;;;;30.40;18.27;;;;;;;;;;5071051;28;20088;-81
2021/03/10 11:49:22;;;;;;;27.70;15.17;;;;;;;;;;5064806;28;20375;-82
2021/03/10 11:51:47;;;;;;;25.53;17.77;;;;;;;;;;5073974;28;20101;-82
2021/03/10 11:54:12;;;;;;;28.02;18.58;;;;;;;;;;5075074;28;20475;-82
2021/03/10 11:56:37;;;;;;;32.63;18.67;;;;;;;;;;5075172;28;20025;-82
2021/03/10 11:59:03;;;;;;;33.53;17.47;;;;;;;;;;5073579;28;20161;-82
2021/03/10 12:01:28;;;;;;;29.55;15.70;;;;;;;;;;5073378;28;20021;-82
2021/03/10 12:03:53;;;;;;;26.23;14.35;;;;;;;;;;5074864;28;20024;-82
2021/03/10 12:06:18;;;;;;;25.10;16.25;;;;;;;;;;5073892;28;20036;-82
2021/03/10 12:08:43;;;;;;;27.70;14.73;;;;;;;;;;5074880;28;20016;-82
2021/03/10 12:11:09;;;;;;;26.90;15.03;;;;;;;;;;5072458;28;20025;-82
2021/03/10 12:13:34;;;;;;;28.53;15.60;;;;;;;;;;5072945;28;20112;-82
2021/03/10 12:15:59;;;;;;;24.40;14.70;;;;;;;;;;5072979;28;20027;-81
2021/03/10 12:18:24;;;;;;;27.45;12.75;;;;;;;;;;5071613;28;20044;-82
2021/03/10 12:20:50;;;;;;;18.40;8.93;;;;;;;;;;5073876;28;20047;-81
2021/03/10 12:23:16;;;;;;;33.17;15.45;;;;;;;;;;5071433;28;20024;-81
2021/03/10 12:25:41;;;;;;;25.25;14.57;;;;;;;;;;5073378;28;20025;-81
2021/03/10 12:28:07;;;;;;;22.63;12.85;;;;;;;;;;5067849;28;20039;-81
2021/03/10 12:30:32;;;;;;;28.52;14.88;;;;;;;;;;5073109;28;20506;-81
2021/03/10 12:32:57;;;;;;;22.02;14.98;;;;;;;;;;5074171;28;20066;-81
2021/03/10 12:35:22;;;;;;;23.40;14.05;;;;;;;;;;5074071;28;20023;-81
2021/03/10 12:37:47;;;;;;;23.17;13.32;;;;;;;;;;5073148;28;20384;-81
2021/03/10 12:40:13;;;;;;;24.63;12.98;;;;;;;;;;5073854;28;20392;-81
2021/03/10 12:42:39;;;;;;;23.08;14.40;;;;;;;;;;5071059;28;20017;-82
2021/03/10 12:45:05;;;;;;;25.30;13.95;;;;;;;;;;5073452;28;20012;-82
2021/03/10 12:47:31;;;;;;;26.30;14.52;;;;;;;;;;5071491;28;20074;-82
2021/03/10 12:49:56;;;;;;;25.38;15.45;;;;;;;;;;5072719;28;20392;-82
2021/03/10 12:52:22;;;;;;;23.10;15.25;;;;;;;;;;5072574;28;20033;-82
2021/03/10 12:54:47;;;;;;;22.35;13.45;;;;;;;;;;5074027;28;20021;-82
2021/03/10 12:57:12;;;;;;;30.85;14.65;;;;;;;;;;5073543;28;20437;-81
2021/03/10 12:59:37;;;;;;;23.15;10.95;;;;;;;;;;5070107;28;20498;-82
2021/03/10 13:02:03;;;;;;;20.20;9.65;;;;;;;;;;5072379;28;20070;-82
2021/03/10 13:04:29;;;;;;;25.48;14.57;;;;;;;;;;5072662;28;20075;-82
2021/03/10 13:06:54;;;;;;;22.92;14.13;;;;;;;;;;5074536;28;20467;-82
2021/03/10 13:09:19;;;;;;;26.65;15.43;;;;;;;;;;5072914;28;20021;-82
2021/03/10 13:11:44;;;;;;;25.88;14.45;;;;;;;;;;5071711;28;20099;-82
2021/03/10 13:14:10;;;;;;;24.48;13.98;;;;;;;;;;5072975;28;20056;-82
2021/03/10 13:16:36;;;;;;;36.75;13.68;;;;;;;;;;5072847;28;20149;-82
2021/03/10 13:19:01;;;;;;;28.05;15.07;;;;;;;;;;5072750;28;20081;-82
2021/03/10 13:21:27;;;;;;;22.88;13.18;;;;;;;;;;5071556;28;20016;-81
2021/03/10 13:23:52;;;;;;;22.42;11.95;;;;;;;;;;5064389;28;20091;-81
2021/03/10 13:26:17;;;;;;;26.10;13.70;;;;;;;;;;5073354;28;20107;-81
2021/03/10 13:28:42;;;;;;;26.80;13.77;;;;;;;;;;5073604;28;20150;-82
2021/03/10 13:31:08;;;;;;;24.98;15.95;;;;;;;;;;5073688;28;20486;-81
2021/03/10 13:33:33;;;;;;;28.63;16.08;;;;;;;;;;5071657;28;20391;-81
2021/03/10 13:35:59;;;;;;;24.38;13.05;;;;;;;;;;5072432;28;20070;-82
2021/03/10 13:38:24;;;;;;;25.83;14.30;;;;;;;;;;5071858;28;20113;-82
2021/03/10 13:40:50;;;;;;;28.35;13.63;;;;;;;;;;5072932;28;20531;-81
2021/03/10 13:43:18;;;;;;;28.88;15.30;;;;;;;;;;5072217;28;20032;-82
2021/03/10 13:45:44;;;;;;;29.35;16.63;;;;;;;;;;5071713;28;20535;-82
2021/03/10 13:48:09;;;;;;;28.67;13.32;;;;;;;;;;5072040;28;20107;-81
2021/03/10 13:50:35;;;;;;;27.85;15.85;;;;;;;;;;5072028;28;20043;-82
2021/03/10 13:53:00;;;;;;;28.13;15.73;;;;;;;;;;5072294;28;20492;-82
2021/03/10 13:55:25;;;;;;;29.30;16.08;;;;;;;;;;5071907;28;20012;-82
2021/03/10 13:57:50;;;;;;;28.88;14.82;;;;;;;;;;5071364;28;20062;-82
2021/03/10 14:00:16;;;;;;;29.30;15.20;;;;;;;;;;5071941;28;20024;-82
2021/03/10 14:02:41;;;;;;;27.67;14.40;;;;;;;;;;5071477;28;20043;-82
2021/03/10 14:05:07;;;;;;;27.35;15.25;;;;;;;;;;5071512;28;20032;-82
2021/03/10 14:07:32;;;;;;;27.65;14.90;;;;;;;;;;5070759;28;20024;-81
2021/03/10 14:09:57;;;;;;;29.38;15.75;;;;;;;;;;5071060;28;20048;-82
2021/03/10 14:12:22;;;;;;;27.67;14.57;;;;;;;;;;5070189;28;20105;-82
2021/03/10 14:14:48;;;;;;;31.25;16.33;;;;;;;;;;5070765;28;20502;-82